Time,TemperatureF,DewpointF,PressureIn,WindDirection,WindDirectionDegrees,WindSpeedMPH,WindSpeedGustMPH,Humidity,HourlyPrecipIn,Conditions,Clouds,dailyrainin,SolarRadiationWatts/m^2,SoftwareType,DateUTC
2013-04-02 00:00:00,33.9,13.8,29.82,WNW,293,4.0,15.0,43,0.00,,,0.00,0000,Weather View 32 v70,2013-04-02 04:00:00,
2013-04-02 00:05:00,33.9,14.3,29.82,North,0,0.0,15.0,44,0.00,,,0.00,0000,Weather View 32 v70,2013-04-02 04:05:00,
2013-04-02 00:10:00,33.7,15.6,29.83,NW,315,0.0,11.0,47,0.00,,,0.00,0000,Weather View 32 v70,2013-04-02 04:10:00,
2013-04-02 00:15:00,33.5,14.4,29.83,NNE,23,1.0,11.0,45,0.00,,,0.00,0000,Weather View 32 v70,2013-04-02 04:15:00,
2013-04-02 00:20:00,33.5,15.9,29.83,WNW,293,3.0,11.0,48,0.00,,,0.00,0000,Weather View 32 v70,2013-04-02 04:20:00,
2013-04-02 00:25:00,33.5,16.4,29.83,WNW,293,2.0,11.0,49,0.00,,,0.00,0008,Weather View 32 v70,2013-04-02 04:25:00,
2013-04-02 00:30:00,33.4,15.8,29.83,NW,315,4.0,11.0,48,0.00,,,0.00,0008,Weather View 32 v70,2013-04-02 04:30:00,
2013-04-02 00:40:00,33.0,15.9,29.83,West,270,0.0,13.0,49,0.00,,,0.00,0000,Weather View 32 v70,2013-04-02 04:40:00,
2013-04-02 00:45:00,33.0,15.9,29.83,North,0,0.0,13.0,49,0.00,,,0.00,0000,Weather View 32 v70,2013-04-02 04:45:00,
2013-04-02 00:55:00,32.9,14.9,29.84,NW,315,1.0,14.0,47,0.00,,,0.00,0000,Weather View 32 v70,2013-04-02 04:55:00,
2013-04-02 01:00:00,33.0,15.5,29.84,NW,315,0.0,14.0,48,0.00,,,0.00,0008,Weather View 32 v70,2013-04-02 05:00:00,
2013-04-02 01:10:00,32.5,15.4,29.85,North,0,0.0,14.0,49,0.00,,,0.00,0000,Weather View 32 v70,2013-04-02 05:10:00,
2013-04-02 01:20:00,32.5,15.9,29.85,West,270,2.0,14.0,50,0.00,,,0.00,0000,Weather View 32 v70,2013-04-02 05:20:00,
2013-04-02 01:25:00,32.3,14.7,29.85,North,0,3.0,14.0,48,0.00,,,0.00,0008,Weather View 32 v70,2013-04-02 05:25:00,
2013-04-02 01:30:00,32.3,15.7,29.85,NW,315,0.0,14.0,50,0.00,,,0.00,0008,Weather View 32 v70,2013-04-02 05:30:00,
2013-04-02 01:35:00,31.9,15.4,29.85,NNW,338,0.0,14.0,50,0.00,,,0.00,0000,Weather View 32 v70,2013-04-02 05:35:00,
2013-04-02 01:40:00,31.8,15.3,29.85,North,0,0.0,14.0,50,0.00,,,0.00,0000,Weather View 32 v70,2013-04-02 05:40:00,
2013-04-02 01:45:00,31.7,15.2,29.85,North,0,0.0,14.0,50,0.00,,,0.00,0000,Weather View 32 v70,2013-04-02 05:45:00,
2013-04-02 01:55:00,31.5,15.9,29.85,NNW,338,3.0,12.0,52,0.00,,,0.00,0000,Weather View 32 v70,2013-04-02 05:55:00,
2013-04-02 02:00:00,31.4,16.2,29.85,North,0,0.0,12.0,53,0.00,,,0.00,0016,Weather View 32 v70,2013-04-02 06:00:00,
2013-04-02 02:10:00,31.4,14.8,29.85,West,270,5.0,12.0,50,0.00,,,0.00,0008,Weather View 32 v70,2013-04-02 06:10:00,
2013-04-02 02:15:00,31.4,15.3,29.85,SSW,203,1.0,12.0,51,0.00,,,0.00,0008,Weather View 32 v70,2013-04-02 06:15:00,
2013-04-02 02:20:00,31.2,14.3,29.85,West,270,0.0,10.0,49,0.00,,,0.00,0016,Weather View 32 v70,2013-04-02 06:20:00,
2013-04-02 02:25:00,31.2,13.3,29.85,NNE,23,0.0,10.0,47,0.00,,,0.00,0000,Weather View 32 v70,2013-04-02 06:25:00,
2013-04-02 02:30:00,31.2,14.3,29.85,North,0,0.0,10.0,49,0.00,,,0.00,0000,Weather View 32 v70,2013-04-02 06:30:00,
2013-04-02 02:40:00,30.8,12.9,29.85,NNW,338,0.0,10.0,47,0.00,,,0.00,0000,Weather View 32 v70,2013-04-02 06:40:00,
2013-04-02 02:45:00,30.9,12.0,29.85,WNW,293,3.0,10.0,45,0.00,,,0.00,0000,Weather View 32 v70,2013-04-02 06:45:00,
2013-04-02 02:55:00,30.7,11.8,29.86,WNW,293,3.0,10.0,45,0.00,,,0.00,0000,Weather View 32 v70,2013-04-02 06:55:00,
2013-04-02 03:00:00,30.6,10.7,29.86,NNW,338,5.0,10.0,43,0.00,,,0.00,0000,Weather View 32 v70,2013-04-02 07:00:00,
2013-04-02 03:10:00,30.3,12.0,29.86,NNW,338,2.0,10.0,46,0.00,,,0.00,0000,Weather View 32 v70,2013-04-02 07:10:00,
2013-04-02 03:15:00,30.1,12.8,29.86,NW,315,1.0,10.0,48,0.00,,,0.00,0000,Weather View 32 v70,2013-04-02 07:15:00,
2013-04-02 03:20:00,29.9,13.0,29.86,WNW,293,2.0,10.0,49,0.00,,,0.00,0016,Weather View 32 v70,2013-04-02 07:20:00,
2013-04-02 03:25:00,29.7,12.8,29.86,West,270,3.0,9.0,49,0.00,,,0.00,0000,Weather View 32 v70,2013-04-02 07:25:00,
2013-04-02 03:30:00,29.4,13.1,29.86,WNW,293,0.0,9.0,50,0.00,,,0.00,0000,Weather View 32 v70,2013-04-02 07:30:00,
2013-04-02 03:35:00,29.2,13.8,29.86,West,270,0.0,9.0,52,0.00,,,0.00,0000,Weather View 32 v70,2013-04-02 07:35:00,
2013-04-02 03:40:00,29.0,14.4,29.86,WNW,293,0.0,9.0,54,0.00,,,0.00,0000,Weather View 32 v70,2013-04-02 07:40:00,
2013-04-02 03:45:00,28.8,14.2,29.86,NNW,338,0.0,9.0,54,0.00,,,0.00,0008,Weather View 32 v70,2013-04-02 07:45:00,
2013-04-02 03:55:00,28.4,14.7,29.86,NNW,338,0.0,9.0,56,0.00,,,0.00,0008,Weather View 32 v70,2013-04-02 07:55:00,
2013-04-02 04:00:00,28.2,14.9,29.86,NNW,338,0.0,7.0,57,0.00,,,0.00,0000,Weather View 32 v70,2013-04-02 08:00:00,
2013-04-02 04:10:00,28.0,14.7,29.86,NW,315,0.0,5.0,57,0.00,,,0.00,0008,Weather View 32 v70,2013-04-02 08:10:00,
2013-04-02 04:20:00,27.6,15.6,29.87,NW,315,0.0,3.0,60,0.00,,,0.00,0000,Weather View 32 v70,2013-04-02 08:20:00,
2013-04-02 04:25:00,27.5,14.3,29.87,NW,315,0.0,3.0,57,0.00,,,0.00,0000,Weather View 32 v70,2013-04-02 08:25:00,
2013-04-02 04:30:00,27.3,13.7,29.87,NW,315,0.0,2.0,56,0.00,,,0.00,0000,Weather View 32 v70,2013-04-02 08:30:00,
2013-04-02 04:40:00,27.1,15.0,29.87,NW,315,0.0,0.0,60,0.00,,,0.00,0000,Weather View 32 v70,2013-04-02 08:40:00,
2013-04-02 04:50:00,27.0,14.5,29.87,NW,315,0.0,0.0,59,0.00,,,0.00,0000,Weather View 32 v70,2013-04-02 08:50:00,
2013-04-02 04:55:00,26.9,14.0,29.87,NW,315,0.0,0.0,58,0.00,,,0.00,0000,Weather View 32 v70,2013-04-02 08:55:00,
2013-04-02 05:00:00,26.9,14.0,29.88,NW,315,0.0,0.0,58,0.00,,,0.00,0000,Weather View 32 v70,2013-04-02 09:00:00,
2013-04-02 05:10:00,26.5,13.7,29.88,NW,315,0.0,0.0,58,0.00,,,0.00,0000,Weather View 32 v70,2013-04-02 09:10:00,
2013-04-02 05:15:00,26.5,14.1,29.88,NW,315,0.0,0.0,59,0.00,,,0.00,0000,Weather View 32 v70,2013-04-02 09:15:00,
2013-04-02 05:20:00,26.3,15.0,29.88,NW,315,0.0,0.0,62,0.00,,,0.00,0000,Weather View 32 v70,2013-04-02 09:20:00,
2013-04-02 05:25:00,26.2,15.7,29.88,NW,315,0.0,0.0,64,0.00,,,0.00,0000,Weather View 32 v70,2013-04-02 09:25:00,
2013-04-02 05:30:00,26.1,15.2,29.88,NW,315,0.0,0.0,63,0.00,,,0.00,0000,Weather View 32 v70,2013-04-02 09:30:00,
2013-04-02 05:40:00,25.8,15.0,29.88,NW,315,0.0,0.0,63,0.00,,,0.00,0000,Weather View 32 v70,2013-04-02 09:40:00,
2013-04-02 05:45:00,26.0,15.1,29.89,WNW,293,0.0,0.0,63,0.00,,,0.00,0008,Weather View 32 v70,2013-04-02 09:45:00,
2013-04-02 05:55:00,26.0,16.2,29.89,NW,315,0.0,0.0,66,0.00,,,0.00,0000,Weather View 32 v70,2013-04-02 09:55:00,
2013-04-02 06:02:00,25.8,16.0,29.89,NW,315,0.0,0.0,66,0.00,,,0.00,0000,Weather View 32 v70,2013-04-02 10:02:00,
2013-04-02 06:10:00,25.8,16.0,29.89,WNW,293,0.0,0.0,66,0.00,,,0.00,0008,Weather View 32 v70,2013-04-02 10:10:00,
2013-04-02 06:20:00,25.7,16.3,29.89,West,270,0.0,0.0,67,0.00,,,0.00,0000,Weather View 32 v70,2013-04-02 10:20:00,
2013-04-02 06:25:00,25.6,16.9,29.89,West,270,0.0,0.0,69,0.00,,,0.00,0000,Weather View 32 v70,2013-04-02 10:25:00,
2013-04-02 06:35:00,25.6,17.2,29.89,WSW,248,0.0,0.0,70,0.00,,,0.00,0008,Weather View 32 v70,2013-04-02 10:35:00,
2013-04-02 06:40:00,25.6,17.2,29.89,WSW,248,0.0,0.0,70,0.00,,,0.00,0008,Weather View 32 v70,2013-04-02 10:40:00,
2013-04-02 06:50:00,25.7,17.6,29.89,West,270,0.0,0.0,71,0.00,,,0.00,0024,Weather View 32 v70,2013-04-02 10:50:00,
2013-04-02 07:00:00,25.8,18.1,29.89,SW,225,0.0,5.0,72,0.00,,,0.00,0056,Weather View 32 v70,2013-04-02 11:00:00,
2013-04-02 07:10:00,26.7,17.9,29.90,WSW,248,2.0,6.0,69,0.00,,,0.00,0088,Weather View 32 v70,2013-04-02 11:10:00,
2013-04-02 07:15:00,27.3,17.4,29.90,West,270,0.0,8.0,66,0.00,,,0.00,0104,Weather View 32 v70,2013-04-02 11:15:00,
2013-04-02 07:25:00,28.3,17.3,29.90,WSW,248,1.0,8.0,63,0.00,,,0.00,0120,Weather View 32 v70,2013-04-02 11:25:00,
2013-04-02 07:35:00,29.2,17.4,29.91,SW,225,3.0,8.0,61,0.00,,,0.00,0152,Weather View 32 v70,2013-04-02 11:35:00,
2013-04-02 07:40:00,29.9,17.7,29.91,West,270,2.0,8.0,60,0.00,,,0.00,0128,Weather View 32 v70,2013-04-02 11:40:00,
2013-04-02 07:50:00,31.0,17.6,29.91,West,270,0.0,8.0,57,0.00,,,0.00,0184,Weather View 32 v70,2013-04-02 11:50:00,
2013-04-02 07:55:00,31.5,17.2,29.91,SW,225,6.0,10.0,55,0.00,,,0.00,0200,Weather View 32 v70,2013-04-02 11:55:00,
2013-04-02 08:00:00,31.8,17.0,29.91,WSW,248,2.0,12.0,54,0.00,,,0.00,0208,Weather View 32 v70,2013-04-02 12:00:00,
2013-04-02 08:05:00,32.3,16.1,29.92,SW,225,2.0,12.0,51,0.00,,,0.00,0208,Weather View 32 v70,2013-04-02 12:05:00,
2013-04-02 08:10:00,32.6,16.9,29.92,WNW,293,1.0,12.0,52,0.00,,,0.00,0240,Weather View 32 v70,2013-04-02 12:10:00,
2013-04-02 08:20:00,33.5,15.4,29.92,SW,225,6.0,12.0,47,0.00,,,0.00,0280,Weather View 32 v70,2013-04-02 12:20:00,
2013-04-02 08:30:00,33.8,15.2,29.92,West,270,6.0,31.0,46,0.00,,,0.00,0280,Weather View 32 v70,2013-04-02 12:30:00,
2013-04-02 08:40:00,34.3,13.5,29.92,SW,225,0.0,31.0,42,0.00,,,0.00,0344,Weather View 32 v70,2013-04-02 12:40:00,
2013-04-02 08:50:00,35.1,14.3,29.92,West,270,11.0,31.0,42,0.00,,,0.00,0352,Weather View 32 v70,2013-04-02 12:50:00,
2013-04-02 08:55:00,35.1,13.7,29.92,WSW,248,9.0,31.0,41,0.00,,,0.00,0392,Weather View 32 v70,2013-04-02 12:55:00,
2013-04-02 09:00:00,35.4,15.1,29.93,WSW,248,0.0,31.0,43,0.00,,,0.00,0392,Weather View 32 v70,2013-04-02 13:00:00,
2013-04-02 09:10:00,36.5,13.3,29.92,SW,225,4.0,31.0,38,0.00,,,0.00,0416,Weather View 32 v70,2013-04-02 13:10:00,
2013-04-02 09:15:00,36.3,13.7,29.92,West,270,6.0,31.0,39,0.00,,,0.00,0528,Weather View 32 v70,2013-04-02 13:15:00,
2013-04-02 09:20:00,36.5,14.5,29.92,WNW,293,4.0,31.0,40,0.00,,,0.00,0120,Weather View 32 v70,2013-04-02 13:20:00,
2013-04-02 09:30:00,36.5,13.3,29.92,WSW,248,5.0,24.0,38,0.00,,,0.00,0544,Weather View 32 v70,2013-04-02 13:30:00,
2013-04-02 09:40:00,37.8,15.0,29.92,WNW,293,3.0,24.0,39,0.00,,,0.00,0616,Weather View 32 v70,2013-04-02 13:40:00,
2013-04-02 09:50:00,38.0,12.7,29.92,WSW,248,4.0,24.0,35,0.00,,,0.00,0584,Weather View 32 v70,2013-04-02 13:50:00,
2013-04-02 10:00:00,38.2,13.6,29.91,WSW,248,9.0,24.0,36,0.00,,,0.00,0592,Weather View 32 v70,2013-04-02 14:00:00,
2013-04-02 10:05:00,37.9,11.3,29.91,SSW,203,6.0,24.0,33,0.00,,,0.00,0568,Weather View 32 v70,2013-04-02 14:05:00,
2013-04-02 10:15:00,37.3,13.4,29.91,WNW,293,2.0,24.0,37,0.00,,,0.00,0616,Weather View 32 v70,2013-04-02 14:15:00,
2013-04-02 10:25:00,38.2,12.3,29.91,WSW,248,7.0,18.0,34,0.00,,,0.00,0680,Weather View 32 v70,2013-04-02 14:25:00,
2013-04-02 10:30:00,38.2,12.9,29.91,WNW,293,7.0,18.0,35,0.00,,,0.00,0656,Weather View 32 v70,2013-04-02 14:30:00,
2013-04-02 10:35:00,38.8,10.7,29.91,WSW,248,9.0,20.0,31,0.00,,,0.00,0680,Weather View 32 v70,2013-04-02 14:35:00,
2013-04-02 10:40:00,38.9,10.8,29.91,WSW,248,4.0,20.0,31,0.00,,,0.00,0688,Weather View 32 v70,2013-04-02 14:40:00,
2013-04-02 10:50:00,39.6,11.4,29.91,WSW,248,7.0,20.0,31,0.00,,,0.00,0752,Weather View 32 v70,2013-04-02 14:50:00,
2013-04-02 10:55:00,38.9,10.1,29.91,SW,225,8.0,20.0,30,0.00,,,0.00,0696,Weather View 32 v70,2013-04-02 14:55:00,
2013-04-02 11:00:00,39.5,9.8,29.91,West,270,3.0,20.0,29,0.00,,,0.00,0720,Weather View 32 v70,2013-04-02 15:00:00,
2013-04-02 11:05:00,39.9,10.2,29.91,West,270,6.0,20.0,29,0.00,,,0.00,0768,Weather View 32 v70,2013-04-02 15:05:00,
2013-04-02 11:15:00,39.0,9.4,29.91,SSW,203,0.0,20.0,29,0.00,,,0.00,0808,Weather View 32 v70,2013-04-02 15:15:00,
2013-04-02 11:25:00,38.6,10.5,29.90,North,0,2.0,20.0,31,0.00,,,0.00,0200,Weather View 32 v70,2013-04-02 15:25:00,
2013-04-02 11:30:00,39.7,10.7,29.90,WSW,248,1.0,20.0,30,0.00,,,0.00,0320,Weather View 32 v70,2013-04-02 15:30:00,
2013-04-02 11:40:00,40.4,10.6,29.90,SW,225,3.0,19.0,29,0.00,,,0.00,0200,Weather View 32 v70,2013-04-02 15:40:00,
2013-04-02 11:45:00,40.2,9.7,29.89,West,270,5.0,19.0,28,0.00,,,0.00,0840,Weather View 32 v70,2013-04-02 15:45:00,
2013-04-02 11:50:00,41.4,12.2,29.89,SSW,203,6.0,19.0,30,0.00,,,0.00,0832,Weather View 32 v70,2013-04-02 15:50:00,
2013-04-02 12:00:00,39.8,8.5,29.89,WNW,293,5.0,19.0,27,0.00,,,0.00,0232,Weather View 32 v70,2013-04-02 16:00:00,
2013-04-02 12:06:00,39.3,9.7,29.89,WSW,248,1.0,16.0,29,0.00,,,0.00,0672,Weather View 32 v70,2013-04-02 16:06:00,
2013-04-02 12:15:00,39.1,10.3,29.88,West,270,7.0,16.0,30,0.00,,,0.00,0136,Weather View 32 v70,2013-04-02 16:15:00,
2013-04-02 12:20:00,39.7,9.2,29.88,SW,225,0.0,16.0,28,0.00,,,0.00,0128,Weather View 32 v70,2013-04-02 16:20:00,
2013-04-02 12:25:00,39.0,10.2,29.88,WNW,293,2.0,16.0,30,0.00,,,0.00,0144,Weather View 32 v70,2013-04-02 16:25:00,
2013-04-02 12:35:00,41.0,9.6,29.88,WNW,293,0.0,16.0,27,0.00,,,0.00,0840,Weather View 32 v70,2013-04-02 16:35:00,
2013-04-02 12:45:00,41.9,9.5,29.88,SSW,203,9.0,16.0,26,0.00,,,0.00,0288,Weather View 32 v70,2013-04-02 16:45:00,
2013-04-02 12:50:00,41.9,10.3,29.87,North,0,3.0,16.0,27,0.00,,,0.00,0320,Weather View 32 v70,2013-04-02 16:50:00,
2013-04-02 12:55:00,43.3,10.6,29.87,WSW,248,5.0,16.0,26,0.00,,,0.00,0952,Weather View 32 v70,2013-04-02 16:55:00,
2013-04-02 13:15:00,42.4,9.9,29.86,NW,315,1.0,44.0,26,0.00,,,0.00,0192,Weather View 32 v70,2013-04-02 17:15:00,
2013-04-02 13:20:00,42.4,10.7,29.87,NNW,338,2.0,44.0,27,0.00,,,0.00,0960,Weather View 32 v70,2013-04-02 17:20:00,
2013-04-02 13:30:00,43.7,11.0,29.86,SW,225,5.0,44.0,26,0.00,,,0.00,0920,Weather View 32 v70,2013-04-02 17:30:00,
2013-04-02 13:35:00,42.3,7.1,29.86,South,180,4.0,44.0,23,0.00,,,0.00,0144,Weather View 32 v70,2013-04-02 17:35:00,
2013-04-02 13:50:00,44.0,10.3,29.86,WNW,293,4.0,44.0,25,0.00,,,0.00,0872,Weather View 32 v70,2013-04-02 17:50:00,
2013-04-02 13:55:00,45.0,10.3,29.85,West,270,7.0,44.0,24,0.00,,,0.00,0848,Weather View 32 v70,2013-04-02 17:55:00,
2013-04-02 14:05:00,43.4,8.0,29.85,SW,225,9.0,22.0,23,0.00,,,0.00,0312,Weather View 32 v70,2013-04-02 18:05:00,
2013-04-02 14:15:00,41.0,6.9,29.85,West,270,7.0,26.0,24,0.00,,,0.00,0200,Weather View 32 v70,2013-04-02 18:15:00,
2013-04-02 14:20:00,42.6,9.2,29.85,NW,315,1.0,26.0,25,0.00,,,0.00,0832,Weather View 32 v70,2013-04-02 18:20:00,
2013-04-02 14:30:00,44.6,10.9,29.85,WNW,293,5.0,26.0,25,0.00,,,0.00,0784,Weather View 32 v70,2013-04-02 18:30:00,
2013-04-02 14:35:00,44.2,5.6,29.85,WSW,248,6.0,26.0,20,0.00,,,0.00,0792,Weather View 32 v70,2013-04-02 18:35:00,
2013-04-02 14:40:00,42.9,7.6,29.85,West,270,3.0,26.0,23,0.00,,,0.00,0752,Weather View 32 v70,2013-04-02 18:40:00,
2013-04-02 14:50:00,42.4,6.2,29.85,West,270,9.0,26.0,22,0.00,,,0.00,0752,Weather View 32 v70,2013-04-02 18:50:00,
2013-04-02 14:55:00,44.9,9.2,29.84,WNW,293,9.0,26.0,23,0.00,,,0.00,0768,Weather View 32 v70,2013-04-02 18:55:00,
2013-04-02 15:05:00,44.5,8.0,29.85,SSW,203,11.0,26.0,22,0.00,,,0.00,0688,Weather View 32 v70,2013-04-02 19:05:00,
2013-04-02 15:10:00,43.6,8.2,29.85,West,270,6.0,20.0,23,0.00,,,0.00,0696,Weather View 32 v70,2013-04-02 19:10:00,
2013-04-02 15:20:00,43.2,7.8,29.85,WSW,248,6.0,20.0,23,0.00,,,0.00,0344,Weather View 32 v70,2013-04-02 19:20:00,
2013-04-02 15:25:00,43.7,7.3,29.84,WNW,293,8.0,20.0,22,0.00,,,0.00,0648,Weather View 32 v70,2013-04-02 19:25:00,
2013-04-02 15:30:00,43.4,7.0,29.84,SSW,203,3.0,20.0,22,0.00,,,0.00,0608,Weather View 32 v70,2013-04-02 19:30:00,
2013-04-02 15:40:00,42.6,6.4,29.85,NW,315,0.0,17.0,22,0.00,,,0.00,0640,Weather View 32 v70,2013-04-02 19:40:00,
2013-04-02 15:50:00,45.2,6.4,29.84,NNW,338,4.0,17.0,20,0.00,,,0.00,0568,Weather View 32 v70,2013-04-02 19:50:00,
2013-04-02 15:55:00,44.1,6.6,29.85,WSW,248,8.0,18.0,21,0.00,,,0.00,0592,Weather View 32 v70,2013-04-02 19:55:00,
2013-04-02 16:00:00,44.2,6.7,29.84,WSW,248,5.0,18.0,21,0.00,,,0.00,0616,Weather View 32 v70,2013-04-02 20:00:00,
2013-04-02 16:05:00,43.2,4.8,29.85,West,270,2.0,26.0,20,0.00,,,0.00,0080,Weather View 32 v70,2013-04-02 20:05:00,
2013-04-02 16:15:00,42.5,5.3,29.85,West,270,6.0,26.0,21,0.00,,,0.00,0488,Weather View 32 v70,2013-04-02 20:15:00,
2013-04-02 16:25:00,42.8,5.5,29.85,West,270,7.0,26.0,21,0.00,,,0.00,0472,Weather View 32 v70,2013-04-02 20:25:00,
2013-04-02 16:35:00,43.3,6.9,29.85,NNW,338,0.0,26.0,22,0.00,,,0.00,0472,Weather View 32 v70,2013-04-02 20:35:00,
2013-04-02 16:45:00,42.9,4.6,29.85,WSW,248,9.0,26.0,20,0.00,,,0.00,0384,Weather View 32 v70,2013-04-02 20:45:00,
2013-04-02 16:55:00,41.8,4.7,29.85,West,270,6.0,26.0,21,0.00,,,0.00,0104,Weather View 32 v70,2013-04-02 20:55:00,
2013-04-02 17:00:00,41.4,5.3,29.85,West,270,4.0,26.0,22,0.00,,,0.00,0352,Weather View 32 v70,2013-04-02 21:00:00,
2013-04-02 17:09:00,41.1,5.1,29.86,WSW,248,2.0,17.0,22,0.00,,,0.00,0384,Weather View 32 v70,2013-04-02 21:09:00,
2013-04-02 17:15:00,41.6,4.5,29.86,WSW,248,0.0,17.0,21,0.00,,,0.00,0344,Weather View 32 v70,2013-04-02 21:15:00,
2013-04-02 17:20:00,41.3,4.2,29.86,WSW,248,18.0,18.0,21,0.00,,,0.00,0168,Weather View 32 v70,2013-04-02 21:20:00,
2013-04-02 17:30:00,40.2,3.4,29.87,West,270,7.0,18.0,21,0.00,,,0.00,0144,Weather View 32 v70,2013-04-02 21:30:00,
2013-04-02 17:40:00,40.1,3.3,29.88,NNW,338,2.0,18.0,21,0.00,,,0.00,0080,Weather View 32 v70,2013-04-02 21:40:00,
2013-04-02 17:50:00,39.7,4.9,29.88,SW,225,10.0,22.0,23,0.00,,,0.00,0056,Weather View 32 v70,2013-04-02 21:50:00,
2013-04-02 17:55:00,39.6,4.8,29.88,SW,225,4.0,22.0,23,0.00,,,0.00,0072,Weather View 32 v70,2013-04-02 21:55:00,
2013-04-02 18:05:00,39.7,3.9,29.89,NW,315,3.0,22.0,22,0.00,,,0.00,0072,Weather View 32 v70,2013-04-02 22:05:00,
2013-04-02 18:10:00,39.5,3.7,29.89,WNW,293,5.0,22.0,22,0.00,,,0.00,0032,Weather View 32 v70,2013-04-02 22:10:00,
2013-04-02 18:15:00,39.3,4.6,29.89,WNW,293,6.0,22.0,23,0.00,,,0.00,0088,Weather View 32 v70,2013-04-02 22:15:00,
2013-04-02 18:20:00,39.2,4.5,29.89,SSE,158,1.0,22.0,23,0.00,,,0.00,0072,Weather View 32 v70,2013-04-02 22:20:00,
2013-04-02 18:25:00,39.1,3.4,29.89,WNW,293,3.0,22.0,22,0.00,,,0.00,0040,Weather View 32 v70,2013-04-02 22:25:00,
2013-04-02 18:30:00,38.7,4.0,29.90,West,270,4.0,22.0,23,0.00,,,0.00,0024,Weather View 32 v70,2013-04-02 22:30:00,
2013-04-02 18:40:00,38.2,2.7,29.91,NW,315,1.0,22.0,22,0.00,,,0.00,0008,Weather View 32 v70,2013-04-02 22:40:00,
2013-04-02 18:45:00,38.1,4.5,29.90,North,0,0.0,22.0,24,0.00,,,0.00,0008,Weather View 32 v70,2013-04-02 22:45:00,
2013-04-02 18:50:00,37.9,3.3,29.91,WSW,248,4.0,15.0,23,0.00,,,0.00,0016,Weather View 32 v70,2013-04-02 22:50:00,
2013-04-02 18:55:00,37.7,5.0,29.91,SW,225,2.0,15.0,25,0.00,,,0.00,0000,Weather View 32 v70,2013-04-02 22:55:00,
2013-04-02 19:00:00,37.4,4.8,29.91,WSW,248,0.0,15.0,25,0.00,,,0.00,0008,Weather View 32 v70,2013-04-02 23:00:00,
2013-04-02 19:10:00,37.0,4.4,29.92,NW,315,2.0,15.0,25,0.00,,,0.00,0008,Weather View 32 v70,2013-04-02 23:10:00,
2013-04-02 19:20:00,36.6,5.0,29.92,West,270,3.0,15.0,26,0.00,,,0.00,0000,Weather View 32 v70,2013-04-02 23:20:00,
2013-04-02 19:30:00,36.3,5.5,29.93,WSW,248,0.0,15.0,27,0.00,,,0.00,0000,Weather View 32 v70,2013-04-02 23:30:00,
2013-04-02 19:35:00,36.1,5.3,29.93,WSW,248,4.0,15.0,27,0.00,,,0.00,0000,Weather View 32 v70,2013-04-02 23:35:00,
2013-04-02 19:45:00,35.4,6.3,29.93,NW,315,0.0,15.0,29,0.00,,,0.00,0000,Weather View 32 v70,2013-04-02 23:45:00,
2013-04-02 19:55:00,35.2,6.1,29.94,WNW,293,2.0,9.0,29,0.00,,,0.00,0000,Weather View 32 v70,2013-04-02 23:55:00,
2013-04-02 20:05:00,35.0,5.9,29.94,ENE,68,1.0,9.0,29,0.00,,,0.00,0000,Weather View 32 v70,2013-04-03 00:05:00,
2013-04-02 20:11:00,34.6,5.6,29.94,WNW,293,0.0,9.0,29,0.00,,,0.00,0000,Weather View 32 v70,2013-04-03 00:11:00,
2013-04-02 20:20:00,33.9,6.5,29.95,NW,315,0.0,9.0,31,0.00,,,0.00,0000,Weather View 32 v70,2013-04-03 00:20:00,
2013-04-02 20:25:00,33.7,5.5,29.95,NNW,338,0.0,9.0,30,0.00,,,0.00,0008,Weather View 32 v70,2013-04-03 00:25:00,
2013-04-02 20:30:00,33.3,6.6,29.96,NNW,338,0.0,9.0,32,0.00,,,0.00,0000,Weather View 32 v70,2013-04-03 00:30:00,
2013-04-02 20:45:00,32.3,7.0,29.96,WNW,293,0.0,9.0,34,0.00,,,0.00,0016,Weather View 32 v70,2013-04-03 00:45:00,
2013-04-02 20:50:00,32.3,6.3,29.97,WNW,293,0.0,8.0,33,0.00,,,0.00,0000,Weather View 32 v70,2013-04-03 00:50:00,
2013-04-02 21:00:00,32.0,6.1,29.97,West,270,0.0,5.0,33,0.00,,,0.00,0000,Weather View 32 v70,2013-04-03 01:00:00,
2013-04-02 21:10:00,31.9,7.3,29.97,NW,315,0.0,3.0,35,0.00,,,0.00,0016,Weather View 32 v70,2013-04-03 01:10:00,
2013-04-02 21:20:00,31.1,8.5,29.97,NNW,338,0.0,3.0,38,0.00,,,0.00,0000,Weather View 32 v70,2013-04-03 01:20:00,
2013-04-02 21:25:00,31.0,8.9,29.97,NW,315,0.0,3.0,39,0.00,,,0.00,0000,Weather View 32 v70,2013-04-03 01:25:00,
2013-04-02 21:30:00,30.9,7.7,29.97,NW,315,0.0,3.0,37,0.00,,,0.00,0000,Weather View 32 v70,2013-04-03 01:30:00,
2013-04-02 21:40:00,30.7,6.9,29.97,NW,315,0.0,3.0,36,0.00,,,0.00,0000,Weather View 32 v70,2013-04-03 01:40:00,
2013-04-02 21:45:00,30.6,6.8,29.97,NW,315,0.0,3.0,36,0.00,,,0.00,0000,Weather View 32 v70,2013-04-03 01:45:00,
2013-04-02 21:50:00,30.5,7.3,29.97,NW,315,0.0,3.0,37,0.00,,,0.00,0008,Weather View 32 v70,2013-04-03 01:50:00,
2013-04-02 21:55:00,30.3,7.2,29.97,NW,315,0.0,3.0,37,0.00,,,0.00,0000,Weather View 32 v70,2013-04-03 01:55:00,
2013-04-02 22:00:00,30.2,7.6,29.98,NW,315,0.0,3.0,38,0.00,,,0.00,0000,Weather View 32 v70,2013-04-03 02:00:00,
2013-04-02 22:05:00,30.1,7.6,29.98,NNW,338,0.0,2.0,38,0.00,,,0.00,0000,Weather View 32 v70,2013-04-03 02:05:00,
2013-04-02 22:12:00,29.8,7.8,29.98,NNW,338,0.0,2.0,39,0.00,,,0.00,0000,Weather View 32 v70,2013-04-03 02:12:00,
2013-04-02 22:20:00,29.4,9.2,29.98,NW,315,0.0,2.0,42,0.00,,,0.00,0008,Weather View 32 v70,2013-04-03 02:20:00,
2013-04-02 22:30:00,29.0,10.3,29.98,NNW,338,0.0,2.0,45,0.00,,,0.00,0000,Weather View 32 v70,2013-04-03 02:30:00,
2013-04-02 22:35:00,28.8,8.0,29.98,NNW,338,0.0,2.0,41,0.00,,,0.00,0000,Weather View 32 v70,2013-04-03 02:35:00,
2013-04-02 22:40:00,28.8,8.0,29.98,NNW,338,0.0,2.0,41,0.00,,,0.00,0000,Weather View 32 v70,2013-04-03 02:40:00,
2013-04-02 22:45:00,28.7,7.9,29.98,NNW,338,0.0,1.0,41,0.00,,,0.00,0000,Weather View 32 v70,2013-04-03 02:45:00,
2013-04-02 22:50:00,28.4,7.7,29.98,WNW,293,0.0,1.0,41,0.00,,,0.00,0000,Weather View 32 v70,2013-04-03 02:50:00,
2013-04-02 22:55:00,28.5,8.9,29.98,NW,315,0.0,1.0,43,0.00,,,0.00,0000,Weather View 32 v70,2013-04-03 02:55:00,
2013-04-02 23:05:00,28.4,8.8,29.98,NW,315,0.0,1.0,43,0.00,,,0.00,0000,Weather View 32 v70,2013-04-03 03:05:00,
2013-04-02 23:12:00,28.3,10.7,29.98,WNW,293,0.0,1.0,47,0.00,,,0.00,0000,Weather View 32 v70,2013-04-03 03:12:00,
2013-04-02 23:20:00,28.1,10.4,29.98,West,270,0.0,0.0,47,0.00,,,0.00,0000,Weather View 32 v70,2013-04-03 03:20:00,
2013-04-02 23:25:00,28.3,10.2,29.98,WSW,248,2.0,3.0,46,0.00,,,0.00,0000,Weather View 32 v70,2013-04-03 03:25:00,
2013-04-02 23:30:00,28.4,8.8,29.98,WNW,293,0.0,5.0,43,0.00,,,0.00,0000,Weather View 32 v70,2013-04-03 03:30:00,
2013-04-02 23:40:00,28.3,9.7,29.98,NW,315,0.0,5.0,45,0.00,,,0.00,0000,Weather View 32 v70,2013-04-03 03:40:00,
2013-04-02 23:45:00,28.8,10.6,29.98,West,270,0.0,5.0,46,0.00,,,0.00,0000,Weather View 32 v70,2013-04-03 03:45:00,
2013-04-02 23:50:00,28.5,10.4,29.98,NNW,338,0.0,5.0,46,0.00,,,0.00,0000,Weather View 32 v70,2013-04-03 03:50:00,
2013-04-02 23:55:00,28.5,8.9,29.98,NW,315,0.0,5.0,43,0.00,,,0.00,0008,Weather View 32 v70,2013-04-03 03:55:00,